sensor_id;sensor_type;location;lat;lon;timestamp;pressure;altitude;pressure_sealevel;temperature;humidity
28004;BME280;15330;51.234;6.754;2023-01-30T00:00:55;101460.53;;;3.10;100.00
28004;BME280;15330;51.234;6.754;2023-01-30T00:03:21;101480.31;;;3.17;100.00
28004;BME280;15330;51.234;6.754;2023-01-30T00:05:47;101480.22;;;3.19;100.00
28004;BME280;15330;51.234;6.754;2023-01-30T00:08:12;101506.84;;;3.16;100.00
28004;BME280;15330;51.234;6.754;2023-01-30T00:10:37;101513.56;;;3.21;100.00
28004;BME280;15330;51.234;6.754;2023-01-30T00:13:03;101497.78;;;3.20;100.00
28004;BME280;15330;51.234;6.754;2023-01-30T00:15:28;101489.47;;;3.26;100.00
28004;BME280;15330;51.234;6.754;2023-01-30T00:17:53;101482.94;;;3.31;100.00
28004;BME280;15330;51.234;6.754;2023-01-30T00:20:19;101475.28;;;3.27;100.00
28004;BME280;15330;51.234;6.754;2023-01-30T00:22:44;101478.97;;;3.24;100.00
28004;BME280;15330;51.234;6.754;2023-01-30T00:25:09;101469.81;;;3.30;100.00
28004;BME280;15330;51.234;6.754;2023-01-30T00:27:35;101472.47;;;3.30;100.00
28004;BME280;15330;51.234;6.754;2023-01-30T00:30:00;101472.78;;;3.38;100.00
28004;BME280;15330;51.234;6.754;2023-01-30T00:32:28;101466.00;;;3.34;100.00
28004;BME280;15330;51.234;6.754;2023-01-30T00:34:54;101462.97;;;3.40;100.00
28004;BME280;15330;51.234;6.754;2023-01-30T00:37:19;101459.47;;;3.40;100.00
28004;BME280;15330;51.234;6.754;2023-01-30T00:39:44;101450.88;;;3.36;100.00
28004;BME280;15330;51.234;6.754;2023-01-30T00:42:10;101455.78;;;3.42;100.00
28004;BME280;15330;51.234;6.754;2023-01-30T00:44:53;101443.28;;;3.44;100.00
28004;BME280;15330;51.234;6.754;2023-01-30T00:47:37;101432.59;;;3.46;100.00
28004;BME280;15330;51.234;6.754;2023-01-30T00:50:03;101420.13;;;3.48;100.00
28004;BME280;15330;51.234;6.754;2023-01-30T00:52:28;101420.88;;;3.50;100.00
28004;BME280;15330;51.234;6.754;2023-01-30T00:54:54;101413.81;;;3.50;100.00
28004;BME280;15330;51.234;6.754;2023-01-30T00:57:19;101416.44;;;3.50;100.00
28004;BME280;15330;51.234;6.754;2023-01-30T00:59:44;101407.47;;;3.53;100.00
28004;BME280;15330;51.234;6.754;2023-01-30T01:02:10;101401.09;;;3.55;100.00
28004;BME280;15330;51.234;6.754;2023-01-30T01:04:35;101410.34;;;3.62;100.00
28004;BME280;15330;51.234;6.754;2023-01-30T01:07:11;101400.69;;;3.61;100.00
28004;BME280;15330;51.234;6.754;2023-01-30T01:09:37;101402.50;;;3.61;100.00
28004;BME280;15330;51.234;6.754;2023-01-30T01:12:02;101403.88;;;3.66;100.00
28004;BME280;15330;51.234;6.754;2023-01-30T01:14:28;101399.63;;;3.64;100.00
28004;BME280;15330;51.234;6.754;2023-01-30T01:16:53;101397.81;;;3.64;100.00
28004;BME280;15330;51.234;6.754;2023-01-30T01:19:18;101386.28;;;3.65;100.00
28004;BME280;15330;51.234;6.754;2023-01-30T01:21:44;101390.94;;;3.75;100.00
28004;BME280;15330;51.234;6.754;2023-01-30T01:24:12;101379.84;;;3.69;100.00
28004;BME280;15330;51.234;6.754;2023-01-30T01:26:38;101382.28;;;3.73;100.00
28004;BME280;15330;51.234;6.754;2023-01-30T01:29:04;101372.31;;;3.76;100.00
28004;BME280;15330;51.234;6.754;2023-01-30T01:31:29;101366.09;;;3.77;100.00
28004;BME280;15330;51.234;6.754;2023-01-30T01:33:55;101379.97;;;3.81;100.00
28004;BME280;15330;51.234;6.754;2023-01-30T01:36:21;101380.91;;;3.80;100.00
28004;BME280;15330;51.234;6.754;2023-01-30T01:38:47;101361.44;;;3.81;100.00
28004;BME280;15330;51.234;6.754;2023-01-30T01:41:13;101367.25;;;3.86;100.00
28004;BME280;15330;51.234;6.754;2023-01-30T01:46:26;101361.94;;;3.86;100.00
28004;BME280;15330;51.234;6.754;2023-01-30T01:48:55;101367.25;;;3.86;100.00
28004;BME280;15330;51.234;6.754;2023-01-30T01:51:38;101365.34;;;3.88;100.00
28004;BME280;15330;51.234;6.754;2023-01-30T01:54:07;101363.66;;;3.87;100.00
28004;BME280;15330;51.234;6.754;2023-01-30T01:56:35;101364.09;;;3.93;100.00
28004;BME280;15330;51.234;6.754;2023-01-30T01:59:20;101370.22;;;3.94;100.00
28004;BME280;15330;51.234;6.754;2023-01-30T02:01:47;101359.50;;;3.95;100.00
28004;BME280;15330;51.234;6.754;2023-01-30T02:04:13;101348.72;;;3.98;100.00
28004;BME280;15330;51.234;6.754;2023-01-30T02:06:59;101332.94;;;3.97;100.00
28004;BME280;15330;51.234;6.754;2023-01-30T02:09:24;101349.66;;;3.97;100.00
28004;BME280;15330;51.234;6.754;2023-01-30T02:11:55;101350.31;;;4.01;100.00
28004;BME280;15330;51.234;6.754;2023-01-30T02:14:22;101337.19;;;3.99;100.00
28004;BME280;15330;51.234;6.754;2023-01-30T02:16:47;101325.63;;;4.00;100.00
28004;BME280;15330;51.234;6.754;2023-01-30T02:38:58;101278.28;;;4.09;100.00
28004;BME280;15330;51.234;6.754;2023-01-30T02:44:10;101268.63;;;4.07;100.00
28004;BME280;15330;51.234;6.754;2023-01-30T02:47:05;101274.56;;;4.11;100.00
28004;BME280;15330;51.234;6.754;2023-01-30T02:49:37;101260.16;;;4.15;100.00
28004;BME280;15330;51.234;6.754;2023-01-30T02:52:07;101261.00;;;4.16;100.00
28004;BME280;15330;51.234;6.754;2023-01-30T02:54:33;101254.75;;;4.17;100.00
28004;BME280;15330;51.234;6.754;2023-01-30T02:56:59;101243.44;;;4.15;100.00
28004;BME280;15330;51.234;6.754;2023-01-30T02:59:35;101250.41;;;4.16;100.00
28004;BME280;15330;51.234;6.754;2023-01-30T03:07:49;101239.47;;;4.20;100.00
28004;BME280;15330;51.234;6.754;2023-01-30T03:10:32;101228.78;;;4.22;100.00
28004;BME280;15330;51.234;6.754;2023-01-30T03:15:50;101240.00;;;4.25;100.00
28004;BME280;15330;51.234;6.754;2023-01-30T03:18:17;101238.31;;;4.24;100.00
28004;BME280;15330;51.234;6.754;2023-01-30T03:20:45;101241.66;;;4.26;100.00
28004;BME280;15330;51.234;6.754;2023-01-30T03:23:10;101233.72;;;4.26;100.00
28004;BME280;15330;51.234;6.754;2023-01-30T03:25:38;101239.53;;;4.31;100.00
28004;BME280;15330;51.234;6.754;2023-01-30T03:28:04;101231.50;;;4.33;100.00
28004;BME280;15330;51.234;6.754;2023-01-30T03:30:31;101225.34;;;4.32;100.00
28004;BME280;15330;51.234;6.754;2023-01-30T03:32:56;101231.28;;;4.36;100.00
28004;BME280;15330;51.234;6.754;2023-01-30T03:35:22;101233.78;;;4.37;100.00
28004;BME280;15330;51.234;6.754;2023-01-30T03:37:47;101227.03;;;4.33;100.00
28004;BME280;15330;51.234;6.754;2023-01-30T03:40:13;101233.69;;;4.39;100.00
28004;BME280;15330;51.234;6.754;2023-01-30T03:42:40;101207.56;;;4.34;100.00
28004;BME280;15330;51.234;6.754;2023-01-30T03:45:06;101210.91;;;4.36;100.00
28004;BME280;15330;51.234;6.754;2023-01-30T03:47:32;101207.44;;;4.36;100.00
28004;BME280;15330;51.234;6.754;2023-01-30T03:49:57;101187.91;;;4.37;100.00
28004;BME280;15330;51.234;6.754;2023-01-30T03:52:22;101185.16;;;4.38;100.00
28004;BME280;15330;51.234;6.754;2023-01-30T03:54:48;101184.78;;;4.32;100.00
28004;BME280;15330;51.234;6.754;2023-01-30T03:57:13;101194.91;;;4.38;100.00
28004;BME280;15330;51.234;6.754;2023-01-30T03:59:38;101182.50;;;4.38;100.00
28004;BME280;15330;51.234;6.754;2023-01-30T04:02:04;101193.09;;;4.38;100.00
28004;BME280;15330;51.234;6.754;2023-01-30T04:04:30;101179.25;;;4.35;100.00
28004;BME280;15330;51.234;6.754;2023-01-30T04:06:55;101179.13;;;4.36;100.00
28004;BME280;15330;51.234;6.754;2023-01-30T04:09:21;101172.28;;;4.34;100.00
28004;BME280;15330;51.234;6.754;2023-01-30T04:11:47;101169.25;;;4.38;100.00
28004;BME280;15330;51.234;6.754;2023-01-30T04:14:12;101164.81;;;4.39;100.00
28004;BME280;15330;51.234;6.754;2023-01-30T04:16:37;101165.34;;;4.44;100.00
28004;BME280;15330;51.234;6.754;2023-01-30T04:19:03;101164.38;;;4.45;100.00
28004;BME280;15330;51.234;6.754;2023-01-30T04:21:28;101174.81;;;4.47;100.00
28004;BME280;15330;51.234;6.754;2023-01-30T04:23:53;101166.78;;;4.48;100.00
28004;BME280;15330;51.234;6.754;2023-01-30T04:26:19;101157.38;;;4.44;100.00
28004;BME280;15330;51.234;6.754;2023-01-30T04:28:44;101147.03;;;4.52;100.00
28004;BME280;15330;51.234;6.754;2023-01-30T04:31:10;101149.69;;;4.52;100.00
28004;BME280;15330;51.234;6.754;2023-01-30T04:33:35;101163.53;;;4.45;100.00
28004;BME280;15330;51.234;6.754;2023-01-30T04:36:02;101154.16;;;4.52;100.00
28004;BME280;15330;51.234;6.754;2023-01-30T04:38:29;101141.38;;;4.46;100.00
28004;BME280;15330;51.234;6.754;2023-01-30T04:40:56;101165.25;;;4.57;100.00
28004;BME280;15330;51.234;6.754;2023-01-30T04:43:23;101158.38;;;4.54;100.00
28004;BME280;15330;51.234;6.754;2023-01-30T04:45:49;101156.56;;;4.55;100.00
28004;BME280;15330;51.234;6.754;2023-01-30T04:48:16;101157.53;;;4.54;100.00
28004;BME280;15330;51.234;6.754;2023-01-30T04:50:43;101144.28;;;4.54;100.00
28004;BME280;15330;51.234;6.754;2023-01-30T04:53:09;101149.06;;;4.49;100.00
28004;BME280;15330;51.234;6.754;2023-01-30T04:55:35;101151.97;;;4.46;100.00
28004;BME280;15330;51.234;6.754;2023-01-30T04:58:01;101152.56;;;4.49;100.00
28004;BME280;15330;51.234;6.754;2023-01-30T05:00:26;101155.31;;;4.48;100.00
28004;BME280;15330;51.234;6.754;2023-01-30T05:02:52;101145.69;;;4.47;100.00
28004;BME280;15330;51.234;6.754;2023-01-30T05:05:20;101150.41;;;4.43;100.00
28004;BME280;15330;51.234;6.754;2023-01-30T05:07:45;101143.03;;;4.47;100.00
28004;BME280;15330;51.234;6.754;2023-01-30T05:10:11;101138.97;;;4.42;100.00
28004;BME280;15330;51.234;6.754;2023-01-30T05:12:36;101148.34;;;4.47;100.00
28004;BME280;15330;51.234;6.754;2023-01-30T05:15:02;101152.56;;;4.49;100.00
28004;BME280;15330;51.234;6.754;2023-01-30T05:17:27;101139.94;;;4.53;100.00
28004;BME280;15330;51.234;6.754;2023-01-30T05:19:52;101142.63;;;4.64;100.00
28004;BME280;15330;51.234;6.754;2023-01-30T05:22:18;101139.72;;;4.56;100.00
28004;BME280;15330;51.234;6.754;2023-01-30T05:24:43;101132.88;;;4.64;100.00
28004;BME280;15330;51.234;6.754;2023-01-30T05:27:08;101131.53;;;4.59;100.00
28004;BME280;15330;51.234;6.754;2023-01-30T05:29:34;101144.31;;;4.65;100.00
28004;BME280;15330;51.234;6.754;2023-01-30T05:31:59;101136.38;;;4.65;100.00
28004;BME280;15330;51.234;6.754;2023-01-30T05:34:24;101129.13;;;4.56;100.00
28004;BME280;15330;51.234;6.754;2023-01-30T05:36:50;101130.44;;;4.61;100.00
28004;BME280;15330;51.234;6.754;2023-01-30T05:39:15;101129.38;;;4.64;100.00
28004;BME280;15330;51.234;6.754;2023-01-30T05:41:40;101128.53;;;4.63;100.00
28004;BME280;15330;51.234;6.754;2023-01-30T05:44:06;101123.00;;;4.66;100.00
28004;BME280;15330;51.234;6.754;2023-01-30T05:46:31;101121.06;;;4.68;100.00
28004;BME280;15330;51.234;6.754;2023-01-30T05:48:57;101119.88;;;4.72;100.00
28004;BME280;15330;51.234;6.754;2023-01-30T05:51:24;101116.50;;;4.70;100.00
28004;BME280;15330;51.234;6.754;2023-01-30T05:53:50;101115.53;;;4.71;100.00
28004;BME280;15330;51.234;6.754;2023-01-30T05:56:16;101109.91;;;4.76;100.00
28004;BME280;15330;51.234;6.754;2023-01-30T05:58:42;101110.84;;;4.75;100.00
28004;BME280;15330;51.234;6.754;2023-01-30T06:01:10;101109.16;;;4.74;100.00
28004;BME280;15330;51.234;6.754;2023-01-30T06:03:36;101110.97;;;4.73;100.00
28004;BME280;15330;51.234;6.754;2023-01-30T06:06:04;101112.06;;;4.82;100.00
28004;BME280;15330;51.234;6.754;2023-01-30T06:08:30;101113.75;;;4.83;100.00
28004;BME280;15330;51.234;6.754;2023-01-30T06:11:01;101119.78;;;4.85;100.00
28004;BME280;15330;51.234;6.754;2023-01-30T06:13:26;101121.59;;;4.85;100.00
28004;BME280;15330;51.234;6.754;2023-01-30T06:15:52;101130.13;;;4.88;100.00
28004;BME280;15330;51.234;6.754;2023-01-30T06:18:17;101123.53;;;5.16;100.00
28004;BME280;15330;51.234;6.754;2023-01-30T06:20:47;101143.53;;;4.98;100.00
28004;BME280;15330;51.234;6.754;2023-01-30T06:23:14;101145.06;;;5.00;100.00
28004;BME280;15330;51.234;6.754;2023-01-30T06:25:43;101149.81;;;5.08;100.00
28004;BME280;15330;51.234;6.754;2023-01-30T06:28:09;101151.50;;;4.98;100.00
28004;BME280;15330;51.234;6.754;2023-01-30T06:30:34;101138.81;;;5.01;100.00
28004;BME280;15330;51.234;6.754;2023-01-30T06:33:00;101142.19;;;5.03;100.00
28004;BME280;15330;51.234;6.754;2023-01-30T06:35:25;101159.69;;;5.06;100.00
28004;BME280;15330;51.234;6.754;2023-01-30T06:37:50;101152.09;;;5.12;100.00
28004;BME280;15330;51.234;6.754;2023-01-30T06:40:16;101142.09;;;5.16;100.00
28004;BME280;15330;51.234;6.754;2023-01-30T06:42:45;101151.34;;;5.33;100.00
28004;BME280;15330;51.234;6.754;2023-01-30T06:45:15;101150.81;;;5.95;100.00
28004;BME280;15330;51.234;6.754;2023-01-30T06:47:49;101167.09;;;6.01;100.00
28004;BME280;15330;51.234;6.754;2023-01-30T06:50:15;101159.94;;;5.47;100.00
28004;BME280;15330;51.234;6.754;2023-01-30T06:52:45;101158.94;;;5.60;100.00
28004;BME280;15330;51.234;6.754;2023-01-30T06:55:13;101156.53;;;5.68;100.00
28004;BME280;15330;51.234;6.754;2023-01-30T06:57:39;101168.72;;;5.70;100.00
28004;BME280;15330;51.234;6.754;2023-01-30T07:00:06;101174.88;;;5.60;100.00
28004;BME280;15330;51.234;6.754;2023-01-30T07:02:32;101176.41;;;5.62;100.00
28004;BME280;15330;51.234;6.754;2023-01-30T07:05:00;101167.59;;;5.62;100.00
28004;BME280;15330;51.234;6.754;2023-01-30T07:07:27;101170.41;;;5.60;100.00
28004;BME280;15330;51.234;6.754;2023-01-30T07:09:52;101174.59;;;5.63;100.00
28004;BME280;15330;51.234;6.754;2023-01-30T07:12:18;101171.94;;;5.63;100.00
28004;BME280;15330;51.234;6.754;2023-01-30T07:14:44;101162.56;;;5.47;100.00
28004;BME280;15330;51.234;6.754;2023-01-30T07:17:10;101168.72;;;5.48;100.00
28004;BME280;15330;51.234;6.754;2023-01-30T07:19:35;101158.84;;;5.50;100.00
28004;BME280;15330;51.234;6.754;2023-01-30T07:22:01;101161.50;;;5.50;100.00
28004;BME280;15330;51.234;6.754;2023-01-30T07:24:26;101172.34;;;5.47;100.00
28004;BME280;15330;51.234;6.754;2023-01-30T07:26:51;101177.41;;;5.50;100.00
28004;BME280;15330;51.234;6.754;2023-01-30T07:29:17;101175.34;;;5.53;100.00
28004;BME280;15330;51.234;6.754;2023-01-30T07:31:42;101164.50;;;5.57;100.00
28004;BME280;15330;51.234;6.754;2023-01-30T07:34:07;101161.13;;;5.54;100.00
28004;BME280;15330;51.234;6.754;2023-01-30T07:36:33;101152.06;;;5.57;100.00
28004;BME280;15330;51.234;6.754;2023-01-30T07:38:59;101162.31;;;5.62;100.00
28004;BME280;15330;51.234;6.754;2023-01-30T07:41:26;101168.34;;;5.64;100.00
28004;BME280;15330;51.234;6.754;2023-01-30T07:43:51;101176.69;;;5.59;100.00
28004;BME280;15330;51.234;6.754;2023-01-30T07:46:16;101176.06;;;5.67;100.00
28004;BME280;15330;51.234;6.754;2023-01-30T07:48:43;101170.75;;;5.67;100.00
28004;BME280;15330;51.234;6.754;2023-01-30T07:51:09;101184.75;;;5.91;100.00
28004;BME280;15330;51.234;6.754;2023-01-30T07:53:34;101190.00;;;6.02;100.00
28004;BME280;15330;51.234;6.754;2023-01-30T07:56:05;101197.59;;;6.07;100.00
28004;BME280;15330;51.234;6.754;2023-01-30T07:58:31;101199.69;;;5.81;100.00
28004;BME280;15330;51.234;6.754;2023-01-30T08:00:56;101194.50;;;5.79;100.00
28004;BME280;15330;51.234;6.754;2023-01-30T08:03:22;101186.06;;;5.74;100.00
28004;BME280;15330;51.234;6.754;2023-01-30T08:05:47;101187.75;;;5.75;100.00
28004;BME280;15330;51.234;6.754;2023-01-30T08:08:13;101195.09;;;5.83;100.00
28004;BME280;15330;51.234;6.754;2023-01-30T08:10:38;101196.97;;;6.14;100.00
28004;BME280;15330;51.234;6.754;2023-01-30T08:13:04;101194.94;;;6.50;100.00
28004;BME280;15330;51.234;6.754;2023-01-30T08:15:29;101193.00;;;6.73;100.00
28004;BME280;15330;51.234;6.754;2023-01-30T08:17:57;101189.75;;;6.90;100.00
28004;BME280;15330;51.234;6.754;2023-01-30T08:20:23;101193.75;;;7.26;100.00
28004;BME280;15330;51.234;6.754;2023-01-30T08:22:49;101188.47;;;6.84;100.00
28004;BME280;15330;51.234;6.754;2023-01-30T08:25:14;101195.66;;;6.73;100.00
28004;BME280;15330;51.234;6.754;2023-01-30T08:27:40;101213.25;;;7.06;100.00
28004;BME280;15330;51.234;6.754;2023-01-30T08:30:06;101219.38;;;6.85;100.00
28004;BME280;15330;51.234;6.754;2023-01-30T08:32:31;101229.75;;;7.30;100.00
28004;BME280;15330;51.234;6.754;2023-01-30T08:34:57;101215.50;;;7.10;100.00
28004;BME280;15330;51.234;6.754;2023-01-30T08:37:22;101223.34;;;7.12;100.00
28004;BME280;15330;51.234;6.754;2023-01-30T08:39:48;101221.22;;;7.06;100.00
28004;BME280;15330;51.234;6.754;2023-01-30T08:42:13;101217.25;;;7.00;100.00
28004;BME280;15330;51.234;6.754;2023-01-30T08:44:38;101222.03;;;7.06;100.00
28004;BME280;15330;51.234;6.754;2023-01-30T08:47:04;101228.97;;;7.18;100.00
28004;BME280;15330;51.234;6.754;2023-01-30T08:49:29;101226.88;;;7.43;100.00
28004;BME280;15330;51.234;6.754;2023-01-30T08:51:54;101225.31;;;7.70;100.00
28004;BME280;15330;51.234;6.754;2023-01-30T08:54:20;101227.69;;;7.33;100.00
28004;BME280;15330;51.234;6.754;2023-01-30T08:56:45;101250.72;;;7.23;100.00
28004;BME280;15330;51.234;6.754;2023-01-30T08:59:11;101257.44;;;7.48;100.00
28004;BME280;15330;51.234;6.754;2023-01-30T09:01:36;101252.19;;;7.98;100.00
28004;BME280;15330;51.234;6.754;2023-01-30T09:04:02;101264.81;;;7.35;100.00
28004;BME280;15330;51.234;6.754;2023-01-30T09:06:28;101271.44;;;7.20;100.00
28004;BME280;15330;51.234;6.754;2023-01-30T09:08:53;101280.19;;;7.11;100.00
28004;BME280;15330;51.234;6.754;2023-01-30T09:11:18;101263.31;;;7.00;100.00
28004;BME280;15330;51.234;6.754;2023-01-30T09:13:44;101259.44;;;6.84;100.00
28004;BME280;15330;51.234;6.754;2023-01-30T09:16:11;101252.09;;;6.97;100.00
28004;BME280;15330;51.234;6.754;2023-01-30T09:18:40;101239.00;;;7.05;100.00
28004;BME280;15330;51.234;6.754;2023-01-30T09:21:06;101236.13;;;6.97;100.00
28004;BME280;15330;51.234;6.754;2023-01-30T09:23:35;101227.56;;;7.14;100.00
28004;BME280;15330;51.234;6.754;2023-01-30T09:26:01;101241.97;;;7.12;99.12
28004;BME280;15330;51.234;6.754;2023-01-30T09:28:27;101246.34;;;7.43;97.28
28004;BME280;15330;51.234;6.754;2023-01-30T09:30:55;101248.16;;;8.13;94.59
28004;BME280;15330;51.234;6.754;2023-01-30T09:33:21;101255.53;;;9.07;89.07
28004;BME280;15330;51.234;6.754;2023-01-30T09:35:47;101264.56;;;8.08;91.81
28004;BME280;15330;51.234;6.754;2023-01-30T09:38:12;101261.19;;;8.06;91.74
28004;BME280;15330;51.234;6.754;2023-01-30T09:46:35;101275.34;;;8.07;88.80
28004;BME280;15330;51.234;6.754;2023-01-30T09:49:30;101281.19;;;7.91;89.60
28004;BME280;15330;51.234;6.754;2023-01-30T09:54:44;101291.16;;;9.35;86.64
28004;BME280;15330;51.234;6.754;2023-01-30T10:11:53;101297.84;;;7.32;90.74
28004;BME280;15330;51.234;6.754;2023-01-30T10:17:14;101300.63;;;7.10;91.22
28004;BME280;15330;51.234;6.754;2023-01-30T10:22:48;101307.50;;;6.92;92.22
28004;BME280;15330;51.234;6.754;2023-01-30T10:25:39;101301.31;;;6.91;91.16
28004;BME280;15330;51.234;6.754;2023-01-30T10:28:19;101298.97;;;6.77;91.17
28004;BME280;15330;51.234;6.754;2023-01-30T10:30:49;101311.53;;;6.75;92.42
28004;BME280;15330;51.234;6.754;2023-01-30T10:33:28;101305.13;;;6.78;91.03
28004;BME280;15330;51.234;6.754;2023-01-30T10:36:01;101299.91;;;6.76;90.88
28004;BME280;15330;51.234;6.754;2023-01-30T10:38:58;101292.13;;;6.63;91.24
28004;BME280;15330;51.234;6.754;2023-01-30T10:44:09;101311.53;;;6.75;91.24
28004;BME280;15330;51.234;6.754;2023-01-30T10:49:43;101312.41;;;6.64;90.34
28004;BME280;15330;51.234;6.754;2023-01-30T11:01:02;101315.59;;;6.58;88.60
28004;BME280;15330;51.234;6.754;2023-01-30T11:06:14;101303.75;;;6.62;88.90
28004;BME280;15330;51.234;6.754;2023-01-30T11:08:41;101306.63;;;6.59;87.38
28004;BME280;15330;51.234;6.754;2023-01-30T11:11:28;101303.47;;;6.66;87.45
28004;BME280;15330;51.234;6.754;2023-01-30T11:14:07;101314.66;;;6.80;87.44
28004;BME280;15330;51.234;6.754;2023-01-30T11:16:45;101320.94;;;6.79;87.34
28004;BME280;15330;51.234;6.754;2023-01-30T11:19:13;101332.78;;;6.75;87.17
28004;BME280;15330;51.234;6.754;2023-01-30T11:21:40;101316.44;;;6.91;86.89
28004;BME280;15330;51.234;6.754;2023-01-30T11:24:43;101314.09;;;6.97;86.24
28004;BME280;15330;51.234;6.754;2023-01-30T11:27:22;101317.69;;;7.08;85.80
28004;BME280;15330;51.234;6.754;2023-01-30T11:29:48;101307.69;;;7.00;85.78
28004;BME280;15330;51.234;6.754;2023-01-30T11:32:27;101312.56;;;6.95;86.12
28004;BME280;15330;51.234;6.754;2023-01-30T11:37:39;101330.06;;;6.97;85.87
28004;BME280;15330;51.234;6.754;2023-01-30T11:42:44;101324.66;;;6.88;85.59
28004;BME280;15330;51.234;6.754;2023-01-30T11:45:10;101329.41;;;6.84;85.75
28004;BME280;15330;51.234;6.754;2023-01-30T11:47:38;101334.13;;;6.81;84.81
28004;BME280;15330;51.234;6.754;2023-01-30T11:50:15;101333.03;;;6.83;85.47
28004;BME280;15330;51.234;6.754;2023-01-30T11:52:42;101326.16;;;6.81;84.49
28004;BME280;15330;51.234;6.754;2023-01-30T11:55:14;101330.75;;;6.79;84.89
28004;BME280;15330;51.234;6.754;2023-01-30T11:57:43;101336.31;;;6.76;84.09
28004;BME280;15330;51.234;6.754;2023-01-30T12:00:16;101326.16;;;6.81;83.61
28004;BME280;15330;51.234;6.754;2023-01-30T12:02:44;101326.78;;;6.73;83.20
28004;BME280;15330;51.234;6.754;2023-01-30T12:05:39;101325.53;;;6.77;83.19
28004;BME280;15330;51.234;6.754;2023-01-30T12:10:48;101321.91;;;6.78;82.90
28004;BME280;15330;51.234;6.754;2023-01-30T12:13:21;101321.69;;;6.81;83.06
28004;BME280;15330;51.234;6.754;2023-01-30T12:15:53;101331.72;;;6.78;82.14
28004;BME280;15330;51.234;6.754;2023-01-30T12:18:52;101330.38;;;6.83;82.91
28004;BME280;15330;51.234;6.754;2023-01-30T12:21:41;101327.31;;;6.88;81.84
28004;BME280;15330;51.234;6.754;2023-01-30T12:24:20;101323.31;;;6.93;81.32
28004;BME280;15330;51.234;6.754;2023-01-30T12:26:54;101331.44;;;6.92;81.22
28004;BME280;15330;51.234;6.754;2023-01-30T12:34:23;101321.59;;;7.04;80.83
28004;BME280;15330;51.234;6.754;2023-01-30T12:37:04;101320.03;;;7.22;80.46
28004;BME280;15330;51.234;6.754;2023-01-30T12:39:45;101320.69;;;7.56;78.75
28004;BME280;15330;51.234;6.754;2023-01-30T12:42:32;101313.63;;;8.06;77.65
28004;BME280;15330;51.234;6.754;2023-01-30T12:50:42;101310.59;;;7.59;77.55
28004;BME280;15330;51.234;6.754;2023-01-30T18:53:52;101825.91;;;5.73;89.93
28004;BME280;15330;51.234;6.754;2023-01-30T18:56:20;101823.69;;;5.79;89.46
28004;BME280;15330;51.234;6.754;2023-01-30T18:58:46;101832.59;;;5.78;89.86
28004;BME280;15330;51.234;6.754;2023-01-30T19:01:18;101834.50;;;5.76;90.00
28004;BME280;15330;51.234;6.754;2023-01-30T19:03:44;101832.06;;;5.73;90.46
28004;BME280;15330;51.234;6.754;2023-01-30T19:06:12;101839.28;;;5.71;90.90
28004;BME280;15330;51.234;6.754;2023-01-30T19:08:41;101843.88;;;5.69;90.68
28004;BME280;15330;51.234;6.754;2023-01-30T19:11:11;101840.25;;;5.70;91.21
28004;BME280;15330;51.234;6.754;2023-01-30T19:13:56;101842.38;;;5.65;91.67
28004;BME280;15330;51.234;6.754;2023-01-30T19:16:24;101849.69;;;5.62;91.63
28004;BME280;15330;51.234;6.754;2023-01-30T19:18:51;101847.88;;;5.62;91.65
28004;BME280;15330;51.234;6.754;2023-01-30T19:21:17;101848.44;;;5.67;91.59
28004;BME280;15330;51.234;6.754;2023-01-30T19:23:43;101843.53;;;5.61;92.13
28004;BME280;15330;51.234;6.754;2023-01-30T19:26:09;101848.41;;;5.54;91.87
28004;BME280;15330;51.234;6.754;2023-01-30T19:28:35;101850.84;;;5.45;92.57
28004;BME280;15330;51.234;6.754;2023-01-30T19:31:07;101860.09;;;5.39;93.22
28004;BME280;15330;51.234;6.754;2023-01-30T19:33:33;101859.66;;;5.45;92.39
28004;BME280;15330;51.234;6.754;2023-01-30T19:36:12;101864.09;;;5.32;92.97
28004;BME280;15330;51.234;6.754;2023-01-30T19:38:38;101869.63;;;5.42;92.49
28004;BME280;15330;51.234;6.754;2023-01-30T19:41:09;101877.47;;;5.31;93.24
28004;BME280;15330;51.234;6.754;2023-01-30T19:43:38;101873.84;;;5.19;93.99
28004;BME280;15330;51.234;6.754;2023-01-30T19:46:04;101878.16;;;5.07;94.12
28004;BME280;15330;51.234;6.754;2023-01-30T19:48:31;101881.31;;;5.00;95.10
28004;BME280;15330;51.234;6.754;2023-01-30T19:50:56;101878.28;;;5.06;94.88
28004;BME280;15330;51.234;6.754;2023-01-30T19:53:25;101888.88;;;5.06;95.08
28004;BME280;15330;51.234;6.754;2023-01-30T19:55:51;101887.69;;;5.10;95.10
28004;BME280;15330;51.234;6.754;2023-01-30T19:58:17;101895.78;;;5.08;95.59
28004;BME280;15330;51.234;6.754;2023-01-30T20:00:42;101897.88;;;5.03;95.53
28004;BME280;15330;51.234;6.754;2023-01-30T20:03:08;101898.06;;;5.00;95.67
28004;BME280;15330;51.234;6.754;2023-01-30T20:05:37;101909.47;;;5.15;95.04
28004;BME280;15330;51.234;6.754;2023-01-30T20:08:03;101915.59;;;5.03;95.40
28004;BME280;15330;51.234;6.754;2023-01-30T20:10:28;101916.09;;;4.95;95.34
28004;BME280;15330;51.234;6.754;2023-01-30T20:12:53;101928.03;;;4.88;95.93
28004;BME280;15330;51.234;6.754;2023-01-30T20:15:19;101921.59;;;4.92;95.72
28004;BME280;15330;51.234;6.754;2023-01-30T20:17:44;101933.56;;;4.85;95.70
28004;BME280;15330;51.234;6.754;2023-01-30T20:20:10;101933.19;;;4.77;96.10
28004;BME280;15330;51.234;6.754;2023-01-30T20:22:35;101939.03;;;4.82;96.31
28004;BME280;15330;51.234;6.754;2023-01-30T20:25:01;101936.97;;;4.87;95.98
28004;BME280;15330;51.234;6.754;2023-01-30T20:27:26;101948.03;;;4.79;95.98
28004;BME280;15330;51.234;6.754;2023-01-30T20:29:51;101943.91;;;4.75;96.11
28004;BME280;15330;51.234;6.754;2023-01-30T20:32:17;101956.22;;;4.76;95.70
28004;BME280;15330;51.234;6.754;2023-01-30T20:34:42;101952.00;;;4.87;95.52
28004;BME280;15330;51.234;6.754;2023-01-30T20:37:07;101954.75;;;4.85;95.25